This is the latest recevied weather packets stored in our database for station/object N5SOR-1. If no packets are shown the sender has not sent any weather packets the latest 10 day(s).
| Time | Temp. | Humidity | Pressure | Rain* | Wind** | Luminosity | Snow |
|---|---|---|---|---|---|---|---|
| 1777595686 | 19.44° C | 54% | 1010.4 hPa | 0 mm | - | 37 W/m² | - |
| 1777595026 | 19.44° C | 53% | 1010 hPa | 0 mm | - | 47 W/m² | - |
| 1777594365 | 20° C | 52% | 1010 hPa | 0 mm | - | 88 W/m² | - |
| 1777593704 | 20.56° C | 52% | 1010.1 hPa | 0 mm | - | 118 W/m² | - |
| 1777593044 | 20.56° C | 51% | 1010 hPa | 0 mm | - | 100 W/m² | - |
| 1777592383 | 21.11° C | 50% | 1009.8 hPa | 0 mm | - | 163 W/m² | - |
| 1777591723 | 21.67° C | 50% | 1009.5 hPa | 0 mm | - | 123 W/m² | - |
| 1777591062 | 22.78° C | 49% | 1009.4 hPa | 0 mm | - | 134 W/m² | - |
| 1777590401 | 22.78° C | 47% | 1008.8 hPa | 0 mm | - | 202 W/m² | - |
| 1777589741 | 23.33° C | 46% | 1009.4 hPa | 0 mm | - | 594 W/m² | - |
| 1777589080 | 23.33° C | 46% | 1009.3 hPa | 0 mm | - | 570 W/m² | - |
| 1777588420 | 23.33° C | 47% | 1009.2 hPa | 0 mm | - | 663 W/m² | - |
| 1777587759 | 22.78° C | 52% | 1009.6 hPa | 0 mm | - | 731 W/m² | - |
| 1777587098 | 22.78° C | 54% | 1008.7 hPa | 0 mm | - | 466 W/m² | - |
| 1777586438 | 23.33° C | 50% | 1009.6 hPa | 0 mm | - | 902 W/m² | - |
| 1777585777 | 22.78° C | 52% | 1009.8 hPa | 0 mm | - | 334 W/m² | - |
| 1777585117 | 22.78° C | 53% | 1009.8 hPa | 0 mm | - | 911 W/m² | - |
| 1777584456 | 23.33° C | 51% | 1009.8 hPa | 0 mm | - | 812 W/m² | - |
| 1777583795 | 22.78° C | 53% | 1009.7 hPa | 0 mm | - | 1016 W/m² | - |
| 1777583135 | 22.78° C | 52% | 1010 hPa | 0 mm | - | 369 W/m² | - |
| 1777582474 | 23.89° C | 49% | 1009.6 hPa | 0 mm | - | 782 W/m² | - |
| 1777581813 | 23.89° C | 52% | 1009.6 hPa | 0 mm | - | 984 W/m² | - |
| 1777581153 | 23.33° C | 52% | 1009.2 hPa | 0 mm | - | 422 W/m² | - |
| 1777580492 | 23.89° C | 49% | 1009 hPa | 0 mm | - | 1044 W/m² | - |
| 1777579832 | 23.89° C | 53% | 1009.1 hPa | 0 mm | - | 508 W/m² | - |
* Rain latest hour (hover to see other rain measurements)
** Current wind speed in m/s (hover to see current wind gust speed)